createdAt,value
2018-12-29T00:05:20.815Z,-2.68
2018-12-29T00:08:11.865Z,-2.71
2018-12-29T00:10:55.262Z,-2.66
2018-12-29T00:13:46.261Z,-2.69
2018-12-29T00:16:18.343Z,-2.64
2018-12-29T00:19:09.349Z,-2.70
2018-12-29T00:21:53.442Z,-2.83
2018-12-29T00:27:52.676Z,-2.77
2018-12-29T00:30:43.661Z,-3.15
2018-12-29T00:33:27.360Z,-2.99
2018-12-29T00:36:18.359Z,-2.93
2018-12-29T00:39:02.283Z,-2.84
2018-12-29T00:41:46.617Z,-2.87
2018-12-29T00:44:30.701Z,-2.90
2018-12-29T00:47:21.744Z,-2.93
2018-12-29T00:50:05.257Z,-2.83
2018-12-29T00:55:58.907Z,-2.76
2018-12-29T00:58:50.193Z,-2.71
2018-12-29T01:01:33.817Z,-2.72
2018-12-29T01:04:24.899Z,-2.71
2018-12-29T01:07:08.652Z,-2.72
2018-12-29T01:09:51.958Z,-2.75
2018-12-29T01:12:42.997Z,-2.80
2018-12-29T01:15:26.690Z,-2.86
2018-12-29T01:18:17.646Z,-2.71
2018-12-29T01:21:01.287Z,-2.73
2018-12-29T01:23:52.289Z,-3.08
2018-12-29T01:26:36.361Z,-2.89
2018-12-29T01:29:27.375Z,-2.86
2018-12-29T01:32:11.042Z,-2.78
2018-12-29T01:34:55.254Z,-2.65
2018-12-29T01:37:46.232Z,-2.64
2018-12-29T01:40:18.023Z,-2.59
2018-12-29T01:43:09.286Z,-2.61
2018-12-29T01:45:52.894Z,-2.61
2018-12-29T01:48:43.850Z,-2.60
2018-12-29T01:51:25.973Z,-2.88
2018-12-29T01:54:16.932Z,-2.65
2018-12-29T01:56:59.239Z,-2.75
2018-12-29T01:59:50.198Z,-2.69
2018-12-29T02:02:33.481Z,-2.77
2018-12-29T02:05:24.513Z,-3.04
2018-12-29T02:08:08.260Z,-2.69
2018-12-29T02:10:51.784Z,-2.71
2018-12-29T02:13:42.739Z,-2.73
2018-12-29T02:16:26.938Z,-2.78
2018-12-29T02:19:17.887Z,-3.05
2018-12-29T02:22:01.754Z,-3.02
2018-12-29T02:24:53.113Z,-3.13
2018-12-29T02:27:36.868Z,-3.01
2018-12-29T02:30:28.845Z,-2.97
2018-12-29T02:33:12.480Z,-2.84
2018-12-29T02:35:55.828Z,-2.77
2018-12-29T02:38:39.311Z,-2.72
2018-12-29T02:41:23.293Z,-2.69
2018-12-29T02:44:14.244Z,-2.85
2018-12-29T02:46:57.579Z,-2.70
2018-12-29T02:49:48.535Z,-2.66
2018-12-29T02:52:31.821Z,-2.68
2018-12-29T02:55:23.049Z,-2.75
2018-12-29T02:58:06.814Z,-2.65
2018-12-29T03:00:57.793Z,-2.75
2018-12-29T03:03:41.755Z,-2.82
2018-12-29T03:06:25.409Z,-2.89
2018-12-29T03:09:16.343Z,-2.63
2018-12-29T03:11:58.393Z,-2.73
2018-12-29T03:14:49.414Z,-2.81
2018-12-29T03:17:32.751Z,-2.68
2018-12-29T03:20:23.772Z,-2.60
2018-12-29T03:23:07.650Z,-2.60
2018-12-29T03:25:58.981Z,-2.60
2018-12-29T03:28:42.961Z,-2.72
2018-12-29T03:31:33.930Z,-2.66
2018-12-29T03:34:18.152Z,-2.62
2018-12-29T03:37:09.121Z,-2.66
2018-12-29T03:39:52.874Z,-2.63
2018-12-29T03:42:37.073Z,-2.56
2018-12-29T03:45:28.998Z,-2.65
2018-12-29T03:48:12.828Z,-2.59
2018-12-29T03:51:03.792Z,-2.56
2018-12-29T03:53:47.407Z,-2.77
2018-12-29T03:56:38.737Z,-2.50
2018-12-29T03:59:23.026Z,-2.36
2018-12-29T04:02:06.811Z,-2.32
2018-12-29T04:04:57.752Z,-2.50
2018-12-29T04:07:41.850Z,-2.32
2018-12-29T04:10:33.166Z,-2.35
2018-12-29T04:13:17.067Z,-2.48
2018-12-29T04:16:08.038Z,-2.47
2018-12-29T04:18:52.025Z,-2.43
2018-12-29T04:21:43.062Z,-2.45
2018-12-29T04:24:26.846Z,-2.35
2018-12-29T04:27:17.883Z,-2.44
2018-12-29T04:30:01.789Z,-2.45
2018-12-29T04:32:52.766Z,-2.50
2018-12-29T04:35:36.854Z,-2.36
2018-12-29T04:38:20.334Z,-2.44
2018-12-29T04:41:04.171Z,-2.33
2018-12-29T04:43:47.749Z,-2.29
2018-12-29T04:46:39.058Z,-2.32
2018-12-29T04:49:21.531Z,-2.33
2018-12-29T04:52:12.492Z,-2.36
2018-12-29T04:54:56.651Z,-2.46
2018-12-29T04:57:47.884Z,-2.32
2018-12-29T05:00:31.831Z,-2.35
2018-12-29T05:03:22.787Z,-2.35
2018-12-29T05:06:07.162Z,-2.37
2018-12-29T05:08:58.131Z,-2.39
2018-12-29T05:11:41.514Z,-2.45
2018-12-29T05:17:41.053Z,-2.20
2018-12-29T05:20:32.012Z,-2.19
2018-12-29T05:23:15.974Z,-2.33
2018-12-29T05:26:07.273Z,-2.24
2018-12-29T05:28:49.290Z,-2.45
2018-12-29T05:31:40.313Z,-2.46
2018-12-29T05:34:24.034Z,-2.28
2018-12-29T05:37:14.987Z,-2.32
2018-12-29T05:39:58.445Z,-2.36
2018-12-29T05:42:49.395Z,-2.34
2018-12-29T05:45:32.959Z,-2.33
2018-12-29T05:48:23.922Z,-2.34
2018-12-29T05:51:07.374Z,-2.24
2018-12-29T05:53:50.881Z,-2.34
2018-12-29T05:56:42.182Z,-2.27
2018-12-29T05:59:26.160Z,-2.19
2018-12-29T06:02:17.256Z,-2.59
2018-12-29T06:05:00.802Z,-2.14
2018-12-29T06:07:51.759Z,-2.19
2018-12-29T06:10:35.129Z,-2.12
2018-12-29T06:13:26.113Z,-2.16
2018-12-29T06:15:58.223Z,-2.10
2018-12-29T06:18:49.471Z,-2.15
2018-12-29T06:21:32.801Z,-2.13
2018-12-29T06:24:16.506Z,-2.01
2018-12-29T06:27:07.457Z,-2.39
2018-12-29T06:29:51.549Z,-2.05
2018-12-29T06:32:42.835Z,-2.18
2018-12-29T06:35:26.513Z,-2.09
2018-12-29T06:38:17.476Z,-2.16
2018-12-29T06:41:08.507Z,-2.10
2018-12-29T06:43:52.293Z,-2.07
2018-12-29T06:46:35.839Z,-2.03
2018-12-29T06:49:19.354Z,-2.30
2018-12-29T06:52:10.310Z,-2.03
2018-12-29T06:54:53.005Z,-2.11
2018-12-29T06:57:43.979Z,-2.03
2018-12-29T07:00:27.530Z,-1.95
2018-12-29T07:03:18.565Z,-2.23
2018-12-29T07:06:02.474Z,-2.26
2018-12-29T07:08:53.428Z,-1.90
2018-12-29T07:11:36.699Z,-2.09
2018-12-29T07:14:28.032Z,-1.91
2018-12-29T07:17:12.023Z,-2.22
2018-12-29T07:20:02.984Z,-1.95
2018-12-29T07:22:46.322Z,-1.80
2018-12-29T07:25:18.076Z,-1.88
2018-12-29T07:28:01.708Z,-1.95
2018-12-29T07:30:52.673Z,-1.79
2018-12-29T07:33:36.694Z,-1.83
2018-12-29T07:36:27.801Z,-1.82
2018-12-29T07:39:11.620Z,-1.89
2018-12-29T07:41:54.984Z,-1.93
2018-12-29T07:44:45.942Z,-1.90
2018-12-29T07:47:28.394Z,-1.85
2018-12-29T07:50:12.555Z,-1.87
2018-12-29T07:53:03.680Z,-1.81
2018-12-29T07:55:48.776Z,-1.99
2018-12-29T07:58:40.641Z,-1.98
2018-12-29T08:01:25.443Z,-1.79
2018-12-29T08:04:35.908Z,-1.83
2018-12-29T08:07:19.721Z,-1.90
2018-12-29T08:10:10.721Z,-1.88
2018-12-29T08:12:54.223Z,-1.82
2018-12-29T08:15:45.221Z,-1.85
2018-12-29T08:18:30.807Z,-1.83
2018-12-29T08:21:22.476Z,-1.95
2018-12-29T08:23:54.264Z,-1.73
2018-12-29T08:26:26.421Z,-1.84
2018-12-29T08:28:58.288Z,-1.69
2018-12-29T08:31:49.805Z,-1.65
2018-12-29T08:34:21.658Z,-1.83
2018-12-29T08:37:13.739Z,-1.66
2018-12-29T08:39:58.961Z,-1.69
2018-12-29T08:42:44.649Z,-2.03
2018-12-29T08:45:30.174Z,-1.88
2018-12-29T08:48:40.749Z,-1.76
2018-12-29T08:51:12.608Z,-1.66
2018-12-29T08:54:04.623Z,-1.77
2018-12-29T08:56:37.248Z,-1.72
2018-12-29T08:59:29.852Z,-1.64
2018-12-29T09:02:17.838Z,-1.70
2018-12-29T09:04:53.160Z,-1.56
2018-12-29T09:07:25.496Z,-1.56
2018-12-29T09:09:57.247Z,-1.71
2018-12-29T09:12:29.203Z,-1.54
2018-12-29T09:15:01.975Z,-1.52
2018-12-29T09:17:47.593Z,-1.67
2018-12-29T09:20:38.639Z,-1.82
2018-12-29T09:23:10.827Z,-1.67
2018-12-29T09:26:01.887Z,-1.53
2018-12-29T09:28:33.729Z,-1.50
2018-12-29T09:31:05.512Z,-1.64
2018-12-29T09:33:37.296Z,-1.53
2018-12-29T09:36:09.519Z,-1.72
2018-12-29T09:38:54.712Z,-1.46
2018-12-29T09:41:26.731Z,-1.48
2018-12-29T09:43:58.503Z,-1.51
2018-12-29T09:46:30.277Z,-1.57
2018-12-29T09:49:02.064Z,-1.40
2018-12-29T09:51:34.293Z,-1.31
2018-12-29T09:54:06.153Z,-1.31
2018-12-29T09:56:38.084Z,-1.32
2018-12-29T09:59:24.595Z,-1.37
2018-12-29T10:02:15.581Z,-1.32
2018-12-29T10:05:01.769Z,-1.40
2018-12-29T10:07:53.677Z,-1.29
2018-12-29T10:10:38.577Z,-1.31
2018-12-29T10:13:22.726Z,-1.33
2018-12-29T10:16:13.703Z,-1.26
2018-12-29T10:18:58.800Z,-1.36
2018-12-29T10:21:50.796Z,-1.28
2018-12-29T10:24:35.130Z,-1.51
2018-12-29T10:27:26.630Z,-1.30
2018-12-29T10:30:10.688Z,-1.24
2018-12-29T10:32:56.241Z,-1.33
2018-12-29T10:35:47.845Z,-1.57
2018-12-29T10:38:32.088Z,-1.22
2018-12-29T10:41:23.291Z,-1.25
2018-12-29T10:44:08.583Z,-1.22
2018-12-29T10:46:59.767Z,-1.28
2018-12-29T10:49:43.925Z,-1.56
2018-12-29T10:52:34.944Z,-1.27
2018-12-29T10:55:22.740Z,-1.25
2018-12-29T10:58:13.764Z,-1.12
2018-12-29T11:00:57.443Z,-1.05
2018-12-29T11:03:48.533Z,-1.12
2018-12-29T11:06:32.496Z,-1.14
2018-12-29T11:09:23.811Z,-1.01
2018-12-29T11:12:07.722Z,-1.07
2018-12-29T11:14:58.751Z,-1.01
2018-12-29T11:17:43.165Z,-1.07
2018-12-29T11:20:34.348Z,-0.94
2018-12-29T11:23:18.082Z,-0.95
2018-12-29T11:26:09.383Z,-0.90
2018-12-29T11:28:53.483Z,-0.90
2018-12-29T11:31:44.440Z,-0.87
2018-12-29T11:34:28.537Z,-0.90
2018-12-29T11:37:19.538Z,-0.87
2018-12-29T11:40:03.823Z,-0.87
2018-12-29T11:42:55.077Z,-0.88
2018-12-29T11:45:37.965Z,-0.76
2018-12-29T11:48:09.861Z,-0.78
2018-12-29T11:51:00.911Z,-0.74
2018-12-29T11:53:56.319Z,-0.66
2018-12-29T11:56:47.346Z,-0.91
2018-12-29T11:59:31.340Z,-0.66
2018-12-29T12:02:41.569Z,-0.84
2018-12-29T12:05:25.075Z,-0.90
2018-12-29T12:08:16.075Z,-0.58
2018-12-29T12:10:59.940Z,-0.64
2018-12-29T12:13:44.682Z,-0.57
2018-12-29T12:16:36.119Z,-0.82
2018-12-29T12:19:20.239Z,-0.63
2018-12-29T12:22:11.294Z,-0.60
2018-12-29T12:24:56.130Z,-0.61
2018-12-29T12:27:47.126Z,-0.61
2018-12-29T12:30:30.736Z,-0.57
2018-12-29T12:33:22.011Z,-0.60
2018-12-29T12:36:05.262Z,-0.58
2018-12-29T12:38:49.353Z,-0.60
2018-12-29T12:41:40.329Z,-0.66
2018-12-29T12:44:24.690Z,-0.58
2018-12-29T12:47:15.773Z,-0.58
2018-12-29T12:49:59.780Z,-0.57
2018-12-29T12:52:51.236Z,-0.47
2018-12-29T12:55:34.810Z,-0.51
2018-12-29T12:58:26.171Z,-0.50
2018-12-29T13:01:30.881Z,-0.51
2018-12-29T13:04:21.883Z,-0.65
2018-12-29T13:07:06.142Z,-0.39
2018-12-29T13:09:57.485Z,-0.36
2018-12-29T13:12:41.438Z,-0.42
2018-12-29T13:15:25.069Z,-0.42
2018-12-29T13:18:16.057Z,-0.37
2018-12-29T13:21:02.943Z,-0.30
2018-12-29T13:23:54.044Z,-0.32
2018-12-29T13:26:37.376Z,-0.45
2018-12-29T13:29:29.057Z,-0.39
2018-12-29T13:32:12.573Z,-0.29
2018-12-29T13:34:57.803Z,-0.29
2018-12-29T13:37:49.029Z,-0.27
2018-12-29T13:40:33.179Z,-0.26
2018-12-29T13:43:24.142Z,-0.27
2018-12-29T13:46:08.572Z,-0.24
2018-12-29T13:48:59.951Z,-0.28
2018-12-29T13:51:43.654Z,-0.34
2018-12-29T13:54:34.883Z,-0.32
2018-12-29T13:57:18.670Z,-0.28
2018-12-29T14:00:09.978Z,-0.19
2018-12-29T14:02:53.733Z,-0.17
2018-12-29T14:05:44.693Z,-0.20
2018-12-29T14:08:28.318Z,-0.19
2018-12-29T14:11:19.273Z,-0.43
2018-12-29T14:14:22.032Z,-0.46
2018-12-29T14:17:12.990Z,-0.08
2018-12-29T14:19:56.684Z,-0.05
2018-12-29T14:22:47.725Z,-0.06
2018-12-29T14:25:31.650Z,-0.03
2018-12-29T14:28:22.591Z,-0.17
2018-12-29T14:31:06.448Z,-0.17
2018-12-29T14:33:38.522Z,-0.14
2018-12-29T14:36:20.826Z,-0.05
2018-12-29T14:39:05.938Z,-0.23
2018-12-29T14:41:57.859Z,0.08
2018-12-29T14:44:39.962Z,-0.04
2018-12-29T14:47:30.909Z,-0.08
2018-12-29T14:50:14.887Z,0.00
2018-12-29T14:53:05.906Z,-0.04
2018-12-29T14:55:50.029Z,-0.07
2018-12-29T14:58:33.769Z,0.03
2018-12-29T15:01:17.427Z,-0.24
2018-12-29T15:04:08.639Z,0.12
2018-12-29T15:06:51.960Z,-0.24
2018-12-29T15:10:01.824Z,0.02
2018-12-29T15:12:45.674Z,0.09
2018-12-29T15:15:36.888Z,-0.08
2018-12-29T15:18:27.540Z,-0.03
2018-12-29T15:21:18.725Z,-0.07
2018-12-29T15:24:00.726Z,-0.09
2018-12-29T15:26:52.098Z,-0.07
2018-12-29T15:29:57.023Z,0.09
2018-12-29T15:32:47.987Z,0.03
2018-12-29T15:35:32.229Z,-0.03
2018-12-29T15:38:23.357Z,0.03
2018-12-29T15:41:28.083Z,-0.02
2018-12-29T15:44:38.968Z,0.04
2018-12-29T15:47:43.226Z,-0.05
2018-12-29T15:50:34.982Z,0.04
2018-12-29T15:53:38.067Z,0.05
2018-12-29T15:56:29.110Z,0.00
2018-12-29T15:59:12.459Z,0.02
2018-12-29T16:02:03.409Z,0.16
2018-12-29T16:04:47.305Z,0.03
2018-12-29T16:07:38.266Z,0.08
2018-12-29T16:10:22.401Z,0.08
2018-12-29T16:13:13.355Z,0.09
2018-12-29T16:15:56.860Z,0.13
2018-12-29T16:18:48.403Z,0.11
2018-12-29T16:21:52.917Z,0.06
2018-12-29T16:24:44.479Z,0.10
2018-12-29T16:27:56.113Z,0.15
2018-12-29T16:31:00.351Z,0.19
2018-12-29T16:33:53.990Z,0.22
2018-12-29T16:36:55.565Z,0.27
2018-12-29T16:39:39.746Z,0.21
2018-12-29T16:42:23.484Z,0.25
2018-12-29T16:45:14.420Z,0.31
2018-12-29T16:47:58.060Z,0.32
2018-12-29T16:50:49.000Z,0.30
2018-12-29T16:53:32.757Z,0.35
2018-12-29T16:56:23.691Z,0.34
2018-12-29T16:59:07.361Z,0.31
2018-12-29T17:01:58.308Z,0.28
2018-12-29T17:04:42.223Z,0.32
2018-12-29T17:07:33.251Z,0.26
2018-12-29T17:10:16.736Z,0.27
2018-12-29T17:13:07.758Z,0.27
2018-12-29T17:15:51.690Z,0.15
2018-12-29T17:18:42.638Z,0.19
2018-12-29T17:21:46.673Z,-0.28
2018-12-29T17:24:37.632Z,0.08
2018-12-29T17:27:42.198Z,0.06
2018-12-29T17:30:33.139Z,0.10
2018-12-29T17:33:16.400Z,0.14
2018-12-29T17:36:07.337Z,0.19
2018-12-29T17:38:52.570Z,0.12
2018-12-29T17:41:43.850Z,-0.07
2018-12-29T17:44:28.059Z,0.08
2018-12-29T17:47:18.996Z,0.14
2018-12-29T17:50:02.737Z,0.16
2018-12-29T17:52:53.687Z,0.16
2018-12-29T17:55:37.009Z,0.06
2018-12-29T17:58:09.306Z,0.00
2018-12-29T18:01:00.315Z,0.04
2018-12-29T18:03:43.807Z,0.14
2018-12-29T18:09:38.283Z,0.11
2018-12-29T18:12:29.323Z,0.14
2018-12-29T18:15:13.261Z,0.09
2018-12-29T18:17:57.180Z,-0.30
2018-12-29T18:20:48.453Z,0.02
2018-12-29T18:23:32.141Z,0.06
2018-12-29T18:26:23.150Z,0.00
2018-12-29T18:29:06.897Z,0.08
2018-12-29T18:31:57.840Z,0.06
2018-12-29T18:34:41.448Z,0.12
2018-12-29T18:37:32.384Z,0.12
2018-12-29T18:40:16.105Z,0.09
2018-12-29T18:43:07.368Z,0.05
2018-12-29T18:45:50.911Z,0.06
2018-12-29T18:48:41.867Z,0.05
2018-12-29T18:51:25.925Z,0.09
2018-12-29T18:54:17.152Z,-0.06
2018-12-29T18:57:00.677Z,0.11
2018-12-29T18:59:51.969Z,-0.29
2018-12-29T19:02:37.414Z,0.11
2018-12-29T19:05:29.053Z,0.19
2018-12-29T19:08:12.712Z,0.10
2018-12-29T19:11:03.644Z,0.11
2018-12-29T19:13:47.391Z,0.18
2018-12-29T19:16:38.669Z,0.10
2018-12-29T19:19:22.537Z,0.20
2018-12-29T19:22:13.539Z,0.24
2018-12-29T19:24:57.797Z,0.36
2018-12-29T19:27:49.899Z,0.27
2018-12-29T19:30:44.639Z,0.38
2018-12-29T19:33:35.872Z,0.37
2018-12-29T19:36:19.467Z,0.34
2018-12-29T19:39:04.728Z,0.28
2018-12-29T19:41:54.955Z,0.26
2018-12-29T19:44:41.250Z,0.31
2018-12-29T19:47:45.180Z,0.23
2018-12-29T19:50:36.512Z,0.20
2018-12-29T19:53:18.538Z,0.16
2018-12-29T19:56:09.484Z,0.17
2018-12-29T19:58:54.434Z,0.15
2018-12-29T20:01:45.370Z,0.21
2018-12-29T20:04:49.346Z,0.27
2018-12-29T20:07:40.655Z,0.26
2018-12-29T20:10:24.172Z,0.18
2018-12-29T20:13:15.106Z,0.17
2018-12-29T20:15:59.300Z,0.21
2018-12-29T20:18:50.319Z,0.14
2018-12-29T20:21:33.536Z,0.15
2018-12-29T20:24:24.803Z,0.16
2018-12-29T20:27:08.067Z,0.21
2018-12-29T20:29:59.356Z,0.19
2018-12-29T20:32:43.380Z,0.18
2018-12-29T20:35:34.318Z,0.28
2018-12-29T20:38:18.032Z,0.28
2018-12-29T20:41:01.771Z,0.21
2018-12-29T20:43:45.210Z,0.32
2018-12-29T20:46:28.609Z,0.33
2018-12-29T20:49:19.542Z,0.36
2018-12-29T20:52:03.693Z,0.36
2018-12-29T20:54:47.038Z,0.44
2018-12-29T20:57:38.260Z,0.34
2018-12-29T21:00:11.361Z,0.33
2018-12-29T21:03:02.298Z,0.44
2018-12-29T21:05:45.824Z,0.44
2018-12-29T21:08:37.013Z,0.30
2018-12-29T21:11:20.678Z,0.37
2018-12-29T21:14:12.942Z,0.40
2018-12-29T21:16:56.541Z,0.44
2018-12-29T21:19:47.486Z,0.36
2018-12-29T21:22:31.697Z,0.36
2018-12-29T21:25:22.652Z,0.29
2018-12-29T21:28:06.155Z,0.07
2018-12-29T21:30:37.962Z,0.21
2018-12-29T21:33:21.341Z,0.29
2018-12-29T21:36:12.656Z,0.33
2018-12-29T21:38:54.691Z,0.38
2018-12-29T21:41:45.631Z,0.39
2018-12-29T21:44:29.579Z,0.42
2018-12-29T21:47:13.322Z,0.36
2018-12-29T21:50:04.418Z,0.25
2018-12-29T21:52:48.051Z,0.32
2018-12-29T21:55:32.282Z,0.38
2018-12-29T21:58:23.222Z,0.26
2018-12-29T22:01:13.519Z,0.37
2018-12-29T22:04:04.526Z,0.36
2018-12-29T22:07:08.394Z,0.40
2018-12-29T22:09:59.581Z,0.43
2018-12-29T22:12:42.954Z,0.46
2018-12-29T22:15:34.163Z,0.42
2018-12-29T22:18:18.132Z,0.47
2018-12-29T22:21:09.081Z,0.19
2018-12-29T22:24:13.906Z,0.53
2018-12-29T22:27:04.921Z,0.52
2018-12-29T22:29:48.554Z,0.53
2018-12-29T22:32:39.566Z,0.56
2018-12-29T22:35:23.688Z,0.55
2018-12-29T22:38:14.627Z,0.53
2018-12-29T22:40:58.569Z,0.28
2018-12-29T22:43:49.501Z,0.61
2018-12-29T22:46:43.456Z,0.59
2018-12-29T22:49:34.385Z,0.48
2018-12-29T22:52:17.932Z,0.57
2018-12-29T22:55:08.856Z,0.60
2018-12-29T22:58:13.486Z,0.58
2018-12-29T23:01:04.670Z,0.59
2018-12-29T23:04:09.139Z,0.65
2018-12-29T23:07:00.076Z,0.63
2018-12-29T23:09:43.814Z,0.65
2018-12-29T23:12:34.764Z,0.66
2018-12-29T23:15:28.869Z,0.72
2018-12-29T23:18:19.892Z,0.67
2018-12-29T23:21:24.393Z,0.74
2018-12-29T23:24:15.330Z,0.71
2018-12-29T23:26:59.049Z,0.71
2018-12-29T23:29:49.987Z,0.70
2018-12-29T23:32:33.930Z,0.62
2018-12-29T23:35:24.930Z,0.83
2018-12-29T23:38:29.222Z,0.87
2018-12-29T23:41:20.186Z,0.87
2018-12-29T23:44:24.890Z,0.84
2018-12-29T23:47:15.829Z,0.84
2018-12-29T23:49:59.838Z,0.84
2018-12-29T23:52:50.881Z,0.85
2018-12-29T23:55:55.626Z,0.88
2018-12-29T23:58:46.823Z,0.81
